sensor_id;sensor_type;location;lat;lon;timestamp;P1;durP1;ratioP1;P2;durP2;ratioP2
9224;SDS011;4647;48.072;11.616;2022-07-29T00:01:51;1.23;;;1.13;;
9224;SDS011;4647;48.072;11.616;2022-07-29T00:04:18;3.00;;;1.20;;
9224;SDS011;4647;48.072;11.616;2022-07-29T00:06:45;1.37;;;1.27;;
9224;SDS011;4647;48.072;11.616;2022-07-29T00:09:13;2.57;;;1.40;;
9224;SDS011;4647;48.072;11.616;2022-07-29T00:11:40;1.77;;;1.10;;
9224;SDS011;4647;48.072;11.616;2022-07-29T00:14:07;1.40;;;1.30;;
9224;SDS011;4647;48.072;11.616;2022-07-29T00:16:34;2.60;;;1.20;;
9224;SDS011;4647;48.072;11.616;2022-07-29T00:19:01;1.63;;;1.40;;
9224;SDS011;4647;48.072;11.616;2022-07-29T00:21:28;2.17;;;1.50;;
9224;SDS011;4647;48.072;11.616;2022-07-29T00:23:55;2.80;;;1.60;;
9224;SDS011;4647;48.072;11.616;2022-07-29T00:26:23;1.50;;;1.40;;
9224;SDS011;4647;48.072;11.616;2022-07-29T00:28:52;2.20;;;1.50;;
9224;SDS011;4647;48.072;11.616;2022-07-29T00:31:19;1.90;;;1.60;;
9224;SDS011;4647;48.072;11.616;2022-07-29T00:33:46;1.90;;;1.63;;
9224;SDS011;4647;48.072;11.616;2022-07-29T00:36:13;2.10;;;1.50;;
9224;SDS011;4647;48.072;11.616;2022-07-29T00:38:39;1.60;;;1.40;;
9224;SDS011;4647;48.072;11.616;2022-07-29T00:41:09;1.97;;;1.77;;
9224;SDS011;4647;48.072;11.616;2022-07-29T00:43:37;3.57;;;1.40;;
9224;SDS011;4647;48.072;11.616;2022-07-29T00:46:04;4.20;;;1.70;;
9224;SDS011;4647;48.072;11.616;2022-07-29T00:48:31;3.00;;;1.53;;
9224;SDS011;4647;48.072;11.616;2022-07-29T00:50:58;2.50;;;1.50;;
9224;SDS011;4647;48.072;11.616;2022-07-29T00:53:27;2.50;;;1.37;;
9224;SDS011;4647;48.072;11.616;2022-07-29T00:55:55;1.50;;;1.40;;
9224;SDS011;4647;48.072;11.616;2022-07-29T00:58:22;1.97;;;1.60;;
9224;SDS011;4647;48.072;11.616;2022-07-29T01:00:51;2.23;;;1.50;;
9224;SDS011;4647;48.072;11.616;2022-07-29T01:03:18;2.03;;;1.47;;
9224;SDS011;4647;48.072;11.616;2022-07-29T01:05:45;1.57;;;1.40;;
9224;SDS011;4647;48.072;11.616;2022-07-29T01:08:13;4.63;;;1.57;;
9224;SDS011;4647;48.072;11.616;2022-07-29T01:10:42;1.63;;;1.50;;
9224;SDS011;4647;48.072;11.616;2022-07-29T01:13:11;1.70;;;1.40;;
9224;SDS011;4647;48.072;11.616;2022-07-29T01:15:41;1.70;;;1.40;;
9224;SDS011;4647;48.072;11.616;2022-07-29T01:18:11;1.70;;;1.60;;
9224;SDS011;4647;48.072;11.616;2022-07-29T01:20:50;2.17;;;1.60;;
9224;SDS011;4647;48.072;11.616;2022-07-29T01:23:46;2.93;;;1.47;;
9224;SDS011;4647;48.072;11.616;2022-07-29T01:26:28;1.80;;;1.40;;
9224;SDS011;4647;48.072;11.616;2022-07-29T01:29:06;1.47;;;1.30;;
9224;SDS011;4647;48.072;11.616;2022-07-29T01:31:39;1.30;;;1.10;;
9224;SDS011;4647;48.072;11.616;2022-07-29T01:34:10;1.27;;;1.17;;
9224;SDS011;4647;48.072;11.616;2022-07-29T01:36:43;1.47;;;1.37;;
9224;SDS011;4647;48.072;11.616;2022-07-29T01:39:17;2.57;;;1.30;;
9224;SDS011;4647;48.072;11.616;2022-07-29T01:41:48;2.20;;;1.20;;
9224;SDS011;4647;48.072;11.616;2022-07-29T01:44:22;1.73;;;1.53;;
9224;SDS011;4647;48.072;11.616;2022-07-29T01:46:58;3.00;;;1.53;;
9224;SDS011;4647;48.072;11.616;2022-07-29T01:49:28;1.30;;;1.20;;
9224;SDS011;4647;48.072;11.616;2022-07-29T01:52:00;2.47;;;1.47;;
9224;SDS011;4647;48.072;11.616;2022-07-29T01:54:32;1.40;;;1.30;;
9224;SDS011;4647;48.072;11.616;2022-07-29T01:57:03;1.30;;;1.20;;
9224;SDS011;4647;48.072;11.616;2022-07-29T01:59:34;1.70;;;1.50;;
9224;SDS011;4647;48.072;11.616;2022-07-29T02:02:03;2.07;;;1.50;;
9224;SDS011;4647;48.072;11.616;2022-07-29T02:04:33;1.73;;;1.50;;
9224;SDS011;4647;48.072;11.616;2022-07-29T02:07:03;3.10;;;1.50;;
9224;SDS011;4647;48.072;11.616;2022-07-29T02:09:33;1.60;;;1.47;;
9224;SDS011;4647;48.072;11.616;2022-07-29T02:12:03;1.50;;;1.40;;
9224;SDS011;4647;48.072;11.616;2022-07-29T02:14:33;1.77;;;1.40;;
9224;SDS011;4647;48.072;11.616;2022-07-29T02:17:03;1.33;;;1.23;;
9224;SDS011;4647;48.072;11.616;2022-07-29T02:19:31;1.20;;;1.10;;
9224;SDS011;4647;48.072;11.616;2022-07-29T02:22:00;1.63;;;1.40;;
9224;SDS011;4647;48.072;11.616;2022-07-29T02:24:28;2.00;;;1.50;;
9224;SDS011;4647;48.072;11.616;2022-07-29T02:26:56;2.40;;;1.37;;
9224;SDS011;4647;48.072;11.616;2022-07-29T02:29:26;1.73;;;1.63;;
9224;SDS011;4647;48.072;11.616;2022-07-29T02:31:55;1.50;;;1.40;;
9224;SDS011;4647;48.072;11.616;2022-07-29T02:34:24;1.50;;;1.40;;
9224;SDS011;4647;48.072;11.616;2022-07-29T02:36:51;3.30;;;1.57;;
9224;SDS011;4647;48.072;11.616;2022-07-29T02:39:20;2.57;;;1.70;;
9224;SDS011;4647;48.072;11.616;2022-07-29T02:41:50;2.87;;;1.40;;
9224;SDS011;4647;48.072;11.616;2022-07-29T02:44:19;1.60;;;1.50;;
9224;SDS011;4647;48.072;11.616;2022-07-29T02:46:49;2.63;;;1.63;;
9224;SDS011;4647;48.072;11.616;2022-07-29T02:49:23;1.60;;;1.50;;
9224;SDS011;4647;48.072;11.616;2022-07-29T02:52:01;2.90;;;1.63;;
9224;SDS011;4647;48.072;11.616;2022-07-29T02:54:31;1.57;;;1.47;;
9224;SDS011;4647;48.072;11.616;2022-07-29T02:57:04;1.53;;;1.20;;
9224;SDS011;4647;48.072;11.616;2022-07-29T02:59:35;3.67;;;1.70;;
9224;SDS011;4647;48.072;11.616;2022-07-29T03:02:03;1.50;;;1.40;;
9224;SDS011;4647;48.072;11.616;2022-07-29T03:04:34;2.00;;;1.53;;
9224;SDS011;4647;48.072;11.616;2022-07-29T03:07:01;1.40;;;1.30;;
9224;SDS011;4647;48.072;11.616;2022-07-29T03:09:29;1.63;;;1.53;;
9224;SDS011;4647;48.072;11.616;2022-07-29T03:11:56;2.63;;;1.57;;
9224;SDS011;4647;48.072;11.616;2022-07-29T03:14:24;1.53;;;1.40;;
9224;SDS011;4647;48.072;11.616;2022-07-29T03:16:51;3.53;;;1.70;;
9224;SDS011;4647;48.072;11.616;2022-07-29T03:19:19;2.50;;;1.63;;
9224;SDS011;4647;48.072;11.616;2022-07-29T03:21:47;1.90;;;1.67;;
9224;SDS011;4647;48.072;11.616;2022-07-29T03:24:28;1.53;;;1.30;;
9224;SDS011;4647;48.072;11.616;2022-07-29T03:26:56;1.50;;;1.40;;
9224;SDS011;4647;48.072;11.616;2022-07-29T03:29:24;3.63;;;1.73;;
9224;SDS011;4647;48.072;11.616;2022-07-29T03:31:51;2.23;;;1.50;;
9224;SDS011;4647;48.072;11.616;2022-07-29T03:34:18;1.73;;;1.63;;
9224;SDS011;4647;48.072;11.616;2022-07-29T03:36:45;2.37;;;1.73;;
9224;SDS011;4647;48.072;11.616;2022-07-29T03:39:15;1.77;;;1.67;;
9224;SDS011;4647;48.072;11.616;2022-07-29T03:41:44;3.43;;;1.67;;
9224;SDS011;4647;48.072;11.616;2022-07-29T03:44:13;1.87;;;1.70;;
9224;SDS011;4647;48.072;11.616;2022-07-29T03:46:43;4.57;;;1.67;;
9224;SDS011;4647;48.072;11.616;2022-07-29T03:49:11;3.33;;;1.57;;
9224;SDS011;4647;48.072;11.616;2022-07-29T03:51:44;1.57;;;1.47;;
9224;SDS011;4647;48.072;11.616;2022-07-29T03:54:12;2.30;;;2.10;;
9224;SDS011;4647;48.072;11.616;2022-07-29T03:56:40;1.80;;;1.70;;
9224;SDS011;4647;48.072;11.616;2022-07-29T03:59:11;6.43;;;1.80;;
9224;SDS011;4647;48.072;11.616;2022-07-29T04:01:39;3.63;;;1.80;;
9224;SDS011;4647;48.072;11.616;2022-07-29T04:04:07;3.43;;;1.60;;
9224;SDS011;4647;48.072;11.616;2022-07-29T04:06:38;2.40;;;1.77;;
9224;SDS011;4647;48.072;11.616;2022-07-29T04:09:06;1.93;;;1.50;;
9224;SDS011;4647;48.072;11.616;2022-07-29T04:11:35;2.30;;;1.80;;
9224;SDS011;4647;48.072;11.616;2022-07-29T04:14:02;2.80;;;1.80;;
9224;SDS011;4647;48.072;11.616;2022-07-29T04:16:30;1.90;;;1.73;;
9224;SDS011;4647;48.072;11.616;2022-07-29T04:18:57;6.20;;;1.93;;
9224;SDS011;4647;48.072;11.616;2022-07-29T04:21:24;6.50;;;2.13;;
9224;SDS011;4647;48.072;11.616;2022-07-29T04:23:51;3.60;;;1.77;;
9224;SDS011;4647;48.072;11.616;2022-07-29T04:26:18;2.63;;;1.90;;
9224;SDS011;4647;48.072;11.616;2022-07-29T04:28:47;4.00;;;1.90;;
9224;SDS011;4647;48.072;11.616;2022-07-29T04:31:14;3.80;;;1.83;;
9224;SDS011;4647;48.072;11.616;2022-07-29T04:33:41;2.83;;;2.10;;
9224;SDS011;4647;48.072;11.616;2022-07-29T04:36:08;5.60;;;1.90;;
9224;SDS011;4647;48.072;11.616;2022-07-29T04:38:36;6.87;;;1.90;;
9224;SDS011;4647;48.072;11.616;2022-07-29T04:41:03;3.10;;;1.73;;
9224;SDS011;4647;48.072;11.616;2022-07-29T04:43:30;3.03;;;1.83;;
9224;SDS011;4647;48.072;11.616;2022-07-29T04:45:58;4.87;;;2.33;;
9224;SDS011;4647;48.072;11.616;2022-07-29T04:48:25;3.17;;;1.93;;
9224;SDS011;4647;48.072;11.616;2022-07-29T04:50:52;3.00;;;1.87;;
9224;SDS011;4647;48.072;11.616;2022-07-29T04:53:19;2.40;;;1.70;;
9224;SDS011;4647;48.072;11.616;2022-07-29T04:55:46;3.83;;;1.87;;
9224;SDS011;4647;48.072;11.616;2022-07-29T04:58:13;5.40;;;2.03;;
9224;SDS011;4647;48.072;11.616;2022-07-29T05:00:40;2.03;;;1.80;;
9224;SDS011;4647;48.072;11.616;2022-07-29T05:03:08;4.60;;;1.60;;
9224;SDS011;4647;48.072;11.616;2022-07-29T05:05:35;2.00;;;1.80;;
9224;SDS011;4647;48.072;11.616;2022-07-29T05:08:02;3.00;;;1.70;;
9224;SDS011;4647;48.072;11.616;2022-07-29T05:10:29;3.40;;;1.73;;
9224;SDS011;4647;48.072;11.616;2022-07-29T05:12:56;2.87;;;1.90;;
9224;SDS011;4647;48.072;11.616;2022-07-29T05:15:23;2.00;;;1.70;;
9224;SDS011;4647;48.072;11.616;2022-07-29T05:17:50;5.37;;;1.70;;
9224;SDS011;4647;48.072;11.616;2022-07-29T05:20:18;1.83;;;1.60;;
9224;SDS011;4647;48.072;11.616;2022-07-29T05:22:51;2.43;;;1.70;;
9224;SDS011;4647;48.072;11.616;2022-07-29T05:25:17;3.37;;;1.80;;
9224;SDS011;4647;48.072;11.616;2022-07-29T05:27:44;4.37;;;1.93;;
9224;SDS011;4647;48.072;11.616;2022-07-29T05:30:11;4.10;;;1.90;;
9224;SDS011;4647;48.072;11.616;2022-07-29T05:32:39;3.03;;;1.90;;
9224;SDS011;4647;48.072;11.616;2022-07-29T05:35:06;2.37;;;1.80;;
9224;SDS011;4647;48.072;11.616;2022-07-29T05:37:35;2.63;;;2.10;;
9224;SDS011;4647;48.072;11.616;2022-07-29T05:40:02;3.57;;;1.90;;
9224;SDS011;4647;48.072;11.616;2022-07-29T05:42:29;2.93;;;1.87;;
9224;SDS011;4647;48.072;11.616;2022-07-29T05:44:56;2.33;;;1.90;;
9224;SDS011;4647;48.072;11.616;2022-07-29T05:47:23;2.20;;;1.87;;
9224;SDS011;4647;48.072;11.616;2022-07-29T05:49:50;2.60;;;2.10;;
9224;SDS011;4647;48.072;11.616;2022-07-29T05:52:17;5.07;;;3.57;;
9224;SDS011;4647;48.072;11.616;2022-07-29T05:54:46;2.27;;;1.90;;
9224;SDS011;4647;48.072;11.616;2022-07-29T05:57:15;2.23;;;1.90;;
9224;SDS011;4647;48.072;11.616;2022-07-29T05:59:42;6.13;;;1.70;;
9224;SDS011;4647;48.072;11.616;2022-07-29T06:02:09;3.57;;;1.80;;
9224;SDS011;4647;48.072;11.616;2022-07-29T06:04:36;2.60;;;1.80;;
9224;SDS011;4647;48.072;11.616;2022-07-29T06:07:03;2.23;;;1.90;;
9224;SDS011;4647;48.072;11.616;2022-07-29T06:09:30;2.53;;;1.80;;
9224;SDS011;4647;48.072;11.616;2022-07-29T06:11:58;2.87;;;2.10;;
9224;SDS011;4647;48.072;11.616;2022-07-29T06:14:25;5.83;;;1.90;;
9224;SDS011;4647;48.072;11.616;2022-07-29T06:16:53;2.53;;;2.00;;
9224;SDS011;4647;48.072;11.616;2022-07-29T06:19:20;2.53;;;1.93;;
9224;SDS011;4647;48.072;11.616;2022-07-29T06:21:47;3.63;;;1.80;;
9224;SDS011;4647;48.072;11.616;2022-07-29T06:24:14;2.87;;;1.53;;
9224;SDS011;4647;48.072;11.616;2022-07-29T06:26:42;3.70;;;1.90;;
9224;SDS011;4647;48.072;11.616;2022-07-29T06:29:10;2.10;;;1.90;;
9224;SDS011;4647;48.072;11.616;2022-07-29T06:31:37;2.87;;;1.80;;
9224;SDS011;4647;48.072;11.616;2022-07-29T06:34:05;2.07;;;1.90;;
9224;SDS011;4647;48.072;11.616;2022-07-29T06:36:33;4.43;;;1.90;;
9224;SDS011;4647;48.072;11.616;2022-07-29T06:39:03;4.80;;;2.00;;
9224;SDS011;4647;48.072;11.616;2022-07-29T06:41:30;5.63;;;2.03;;
9224;SDS011;4647;48.072;11.616;2022-07-29T06:43:58;2.23;;;2.03;;
9224;SDS011;4647;48.072;11.616;2022-07-29T06:46:26;1.97;;;1.70;;
9224;SDS011;4647;48.072;11.616;2022-07-29T06:48:53;3.13;;;2.00;;
9224;SDS011;4647;48.072;11.616;2022-07-29T06:51:20;2.60;;;2.27;;
9224;SDS011;4647;48.072;11.616;2022-07-29T06:53:48;2.27;;;2.03;;
9224;SDS011;4647;48.072;11.616;2022-07-29T06:56:15;4.70;;;1.90;;
9224;SDS011;4647;48.072;11.616;2022-07-29T06:58:42;2.23;;;2.00;;
9224;SDS011;4647;48.072;11.616;2022-07-29T07:01:09;2.37;;;1.90;;
9224;SDS011;4647;48.072;11.616;2022-07-29T07:03:37;6.17;;;2.47;;
9224;SDS011;4647;48.072;11.616;2022-07-29T07:06:04;3.43;;;1.80;;
9224;SDS011;4647;48.072;11.616;2022-07-29T07:08:31;2.47;;;1.60;;
9224;SDS011;4647;48.072;11.616;2022-07-29T07:10:58;2.13;;;1.93;;
9224;SDS011;4647;48.072;11.616;2022-07-29T07:13:25;3.53;;;1.80;;
9224;SDS011;4647;48.072;11.616;2022-07-29T07:15:53;6.07;;;2.00;;
9224;SDS011;4647;48.072;11.616;2022-07-29T07:18:20;3.23;;;1.67;;
9224;SDS011;4647;48.072;11.616;2022-07-29T07:20:48;2.40;;;1.83;;
9224;SDS011;4647;48.072;11.616;2022-07-29T07:23:15;1.80;;;1.70;;
9224;SDS011;4647;48.072;11.616;2022-07-29T07:25:42;2.20;;;1.70;;
9224;SDS011;4647;48.072;11.616;2022-07-29T07:28:08;2.77;;;2.10;;
9224;SDS011;4647;48.072;11.616;2022-07-29T07:30:35;4.07;;;1.63;;
9224;SDS011;4647;48.072;11.616;2022-07-29T07:33:02;2.00;;;1.90;;
9224;SDS011;4647;48.072;11.616;2022-07-29T07:35:30;2.23;;;1.73;;
9224;SDS011;4647;48.072;11.616;2022-07-29T07:37:58;2.67;;;1.60;;
9224;SDS011;4647;48.072;11.616;2022-07-29T07:40:25;1.97;;;1.50;;
9224;SDS011;4647;48.072;11.616;2022-07-29T07:42:52;2.60;;;1.80;;
9224;SDS011;4647;48.072;11.616;2022-07-29T07:45:19;1.67;;;1.57;;
9224;SDS011;4647;48.072;11.616;2022-07-29T07:47:46;1.40;;;1.30;;
9224;SDS011;4647;48.072;11.616;2022-07-29T07:50:13;1.77;;;1.57;;
9224;SDS011;4647;48.072;11.616;2022-07-29T07:52:47;4.60;;;1.60;;
9224;SDS011;4647;48.072;11.616;2022-07-29T07:55:16;2.00;;;1.57;;
9224;SDS011;4647;48.072;11.616;2022-07-29T07:57:43;1.60;;;1.50;;
9224;SDS011;4647;48.072;11.616;2022-07-29T08:00:11;1.93;;;1.70;;
9224;SDS011;4647;48.072;11.616;2022-07-29T08:02:39;3.70;;;1.60;;
9224;SDS011;4647;48.072;11.616;2022-07-29T08:05:08;2.77;;;1.67;;
9224;SDS011;4647;48.072;11.616;2022-07-29T08:07:35;2.17;;;1.50;;
9224;SDS011;4647;48.072;11.616;2022-07-29T08:10:02;2.17;;;1.70;;
9224;SDS011;4647;48.072;11.616;2022-07-29T08:12:31;1.73;;;1.50;;
9224;SDS011;4647;48.072;11.616;2022-07-29T08:14:58;2.83;;;1.63;;
9224;SDS011;4647;48.072;11.616;2022-07-29T08:17:25;1.70;;;1.60;;
9224;SDS011;4647;48.072;11.616;2022-07-29T08:19:53;6.10;;;2.00;;
9224;SDS011;4647;48.072;11.616;2022-07-29T08:22:19;2.03;;;1.50;;
9224;SDS011;4647;48.072;11.616;2022-07-29T08:24:50;7.23;;;1.90;;
9224;SDS011;4647;48.072;11.616;2022-07-29T08:27:21;2.03;;;1.70;;
9224;SDS011;4647;48.072;11.616;2022-07-29T08:29:49;2.23;;;1.60;;
9224;SDS011;4647;48.072;11.616;2022-07-29T08:32:16;1.60;;;1.50;;
9224;SDS011;4647;48.072;11.616;2022-07-29T08:34:43;2.20;;;1.90;;
9224;SDS011;4647;48.072;11.616;2022-07-29T08:37:11;3.17;;;1.87;;
9224;SDS011;4647;48.072;11.616;2022-07-29T08:39:38;1.87;;;1.77;;
9224;SDS011;4647;48.072;11.616;2022-07-29T08:42:06;10.07;;;2.10;;
9224;SDS011;4647;48.072;11.616;2022-07-29T08:44:33;2.07;;;1.80;;
9224;SDS011;4647;48.072;11.616;2022-07-29T08:47:01;2.90;;;2.00;;
9224;SDS011;4647;48.072;11.616;2022-07-29T08:49:29;2.90;;;2.00;;
9224;SDS011;4647;48.072;11.616;2022-07-29T08:51:57;2.10;;;1.90;;
9224;SDS011;4647;48.072;11.616;2022-07-29T08:54:25;3.40;;;1.90;;
9224;SDS011;4647;48.072;11.616;2022-07-29T08:56:53;2.07;;;1.87;;
9224;SDS011;4647;48.072;11.616;2022-07-29T08:59:22;2.47;;;2.20;;
9224;SDS011;4647;48.072;11.616;2022-07-29T09:01:52;2.90;;;2.10;;
9224;SDS011;4647;48.072;11.616;2022-07-29T09:04:21;5.65;;;2.10;;
9224;SDS011;4647;48.072;11.616;2022-07-29T09:06:51;3.60;;;1.80;;
9224;SDS011;4647;48.072;11.616;2022-07-29T09:09:20;2.10;;;1.90;;
9224;SDS011;4647;48.072;11.616;2022-07-29T09:11:47;2.27;;;1.97;;
9224;SDS011;4647;48.072;11.616;2022-07-29T09:14:14;2.00;;;1.73;;
9224;SDS011;4647;48.072;11.616;2022-07-29T09:16:45;2.00;;;1.80;;
9224;SDS011;4647;48.072;11.616;2022-07-29T09:19:21;4.43;;;1.80;;
9224;SDS011;4647;48.072;11.616;2022-07-29T09:21:49;3.23;;;1.70;;
9224;SDS011;4647;48.072;11.616;2022-07-29T09:27:09;2.07;;;1.97;;
9224;SDS011;4647;48.072;11.616;2022-07-29T09:29:37;2.77;;;1.93;;
9224;SDS011;4647;48.072;11.616;2022-07-29T09:32:06;2.53;;;2.00;;
9224;SDS011;4647;48.072;11.616;2022-07-29T09:34:37;2.07;;;1.97;;
9224;SDS011;4647;48.072;11.616;2022-07-29T09:37:04;3.57;;;2.20;;
9224;SDS011;4647;48.072;11.616;2022-07-29T09:39:31;2.20;;;2.00;;
9224;SDS011;4647;48.072;11.616;2022-07-29T09:42:00;2.57;;;2.37;;
9224;SDS011;4647;48.072;11.616;2022-07-29T09:44:40;2.93;;;2.30;;
9224;SDS011;4647;48.072;11.616;2022-07-29T09:47:09;4.23;;;2.13;;
9224;SDS011;4647;48.072;11.616;2022-07-29T09:49:49;2.97;;;2.17;;
9224;SDS011;4647;48.072;11.616;2022-07-29T09:52:18;7.93;;;1.80;;
9224;SDS011;4647;48.072;11.616;2022-07-29T09:54:45;4.03;;;2.30;;
9224;SDS011;4647;48.072;11.616;2022-07-29T09:57:22;2.87;;;2.10;;
9224;SDS011;4647;48.072;11.616;2022-07-29T09:59:56;5.03;;;2.50;;
9224;SDS011;4647;48.072;11.616;2022-07-29T10:02:27;3.03;;;2.73;;
9224;SDS011;4647;48.072;11.616;2022-07-29T10:04:58;3.57;;;3.00;;
9224;SDS011;4647;48.072;11.616;2022-07-29T10:07:25;3.47;;;2.77;;
9224;SDS011;4647;48.072;11.616;2022-07-29T10:09:53;6.73;;;2.73;;
9224;SDS011;4647;48.072;11.616;2022-07-29T10:12:22;4.27;;;2.60;;
9224;SDS011;4647;48.072;11.616;2022-07-29T10:14:49;3.40;;;2.23;;
9224;SDS011;4647;48.072;11.616;2022-07-29T10:17:17;2.73;;;2.40;;
9224;SDS011;4647;48.072;11.616;2022-07-29T10:19:45;2.60;;;2.40;;
9224;SDS011;4647;48.072;11.616;2022-07-29T10:22:15;6.67;;;2.50;;
9224;SDS011;4647;48.072;11.616;2022-07-29T10:24:42;2.63;;;2.40;;
9224;SDS011;4647;48.072;11.616;2022-07-29T10:27:09;3.63;;;2.30;;
9224;SDS011;4647;48.072;11.616;2022-07-29T10:29:36;3.57;;;2.37;;
9224;SDS011;4647;48.072;11.616;2022-07-29T10:35:00;2.80;;;2.53;;
9224;SDS011;4647;48.072;11.616;2022-07-29T10:37:57;3.93;;;2.47;;
9224;SDS011;4647;48.072;11.616;2022-07-29T10:40:48;2.87;;;2.40;;
9224;SDS011;4647;48.072;11.616;2022-07-29T10:43:40;7.43;;;3.07;;
9224;SDS011;4647;48.072;11.616;2022-07-29T10:46:09;3.53;;;2.67;;
9224;SDS011;4647;48.072;11.616;2022-07-29T10:57:18;4.90;;;2.50;;
9224;SDS011;4647;48.072;11.616;2022-07-29T10:59:51;8.27;;;2.73;;
9224;SDS011;4647;48.072;11.616;2022-07-29T11:02:59;2.60;;;2.40;;
9224;SDS011;4647;48.072;11.616;2022-07-29T11:05:26;4.47;;;2.40;;
9224;SDS011;4647;48.072;11.616;2022-07-29T11:10:49;3.47;;;2.47;;
9224;SDS011;4647;48.072;11.616;2022-07-29T11:16:20;4.80;;;2.53;;
9224;SDS011;4647;48.072;11.616;2022-07-29T11:21:49;7.10;;;2.73;;
9224;SDS011;4647;48.072;11.616;2022-07-29T11:24:17;2.50;;;2.30;;
9224;SDS011;4647;48.072;11.616;2022-07-29T11:29:39;3.00;;;2.40;;
9224;SDS011;4647;48.072;11.616;2022-07-29T11:32:14;3.33;;;2.50;;
9224;SDS011;4647;48.072;11.616;2022-07-29T11:34:44;3.40;;;2.40;;
9224;SDS011;4647;48.072;11.616;2022-07-29T11:37:16;7.33;;;2.20;;
9224;SDS011;4647;48.072;11.616;2022-07-29T11:39:45;6.83;;;2.47;;
9224;SDS011;4647;48.072;11.616;2022-07-29T11:42:36;2.80;;;2.50;;
9224;SDS011;4647;48.072;11.616;2022-07-29T11:45:19;2.73;;;1.93;;
9224;SDS011;4647;48.072;11.616;2022-07-29T11:47:54;3.30;;;2.40;;
9224;SDS011;4647;48.072;11.616;2022-07-29T11:50:27;2.53;;;2.00;;
9224;SDS011;4647;48.072;11.616;2022-07-29T11:53:01;3.10;;;2.40;;
9224;SDS011;4647;48.072;11.616;2022-07-29T11:55:30;2.67;;;2.23;;
9224;SDS011;4647;48.072;11.616;2022-07-29T11:58:00;3.17;;;2.37;;
9224;SDS011;4647;48.072;11.616;2022-07-29T12:00:31;3.80;;;2.10;;
9224;SDS011;4647;48.072;11.616;2022-07-29T12:03:00;2.87;;;2.17;;
9224;SDS011;4647;48.072;11.616;2022-07-29T12:05:33;2.30;;;2.10;;
9224;SDS011;4647;48.072;11.616;2022-07-29T12:08:05;3.30;;;2.30;;
9224;SDS011;4647;48.072;11.616;2022-07-29T12:10:37;2.87;;;2.27;;
9224;SDS011;4647;48.072;11.616;2022-07-29T12:13:05;2.10;;;1.90;;
9224;SDS011;4647;48.072;11.616;2022-07-29T12:15:34;4.00;;;2.53;;
9224;SDS011;4647;48.072;11.616;2022-07-29T12:18:11;4.13;;;1.93;;
9224;SDS011;4647;48.072;11.616;2022-07-29T12:20:39;3.17;;;2.20;;
9224;SDS011;4647;48.072;11.616;2022-07-29T12:23:07;3.03;;;2.10;;
9224;SDS011;4647;48.072;11.616;2022-07-29T12:25:37;2.50;;;2.30;;
9224;SDS011;4647;48.072;11.616;2022-07-29T12:28:06;2.60;;;2.27;;
9224;SDS011;4647;48.072;11.616;2022-07-29T12:30:39;3.90;;;2.10;;
9224;SDS011;4647;48.072;11.616;2022-07-29T12:33:18;5.27;;;2.10;;
9224;SDS011;4647;48.072;11.616;2022-07-29T12:35:47;5.53;;;2.30;;
9224;SDS011;4647;48.072;11.616;2022-07-29T12:38:17;3.37;;;2.10;;
9224;SDS011;4647;48.072;11.616;2022-07-29T12:40:45;4.50;;;2.20;;
9224;SDS011;4647;48.072;11.616;2022-07-29T12:43:14;2.20;;;2.00;;
9224;SDS011;4647;48.072;11.616;2022-07-29T12:45:43;7.53;;;2.23;;
9224;SDS011;4647;48.072;11.616;2022-07-29T12:48:11;2.33;;;2.00;;
9224;SDS011;4647;48.072;11.616;2022-07-29T12:50:55;1.87;;;1.77;;
9224;SDS011;4647;48.072;11.616;2022-07-29T12:53:23;4.60;;;2.10;;
9224;SDS011;4647;48.072;11.616;2022-07-29T12:55:52;3.23;;;2.50;;
9224;SDS011;4647;48.072;11.616;2022-07-29T12:58:26;3.00;;;1.90;;
9224;SDS011;4647;48.072;11.616;2022-07-29T13:01:00;2.60;;;1.80;;
9224;SDS011;4647;48.072;11.616;2022-07-29T13:03:29;4.67;;;2.10;;
9224;SDS011;4647;48.072;11.616;2022-07-29T13:06:07;5.83;;;2.10;;
9224;SDS011;4647;48.072;11.616;2022-07-29T13:09:01;2.17;;;1.97;;
9224;SDS011;4647;48.072;11.616;2022-07-29T13:11:33;3.63;;;2.20;;
9224;SDS011;4647;48.072;11.616;2022-07-29T13:14:02;2.07;;;1.87;;
9224;SDS011;4647;48.072;11.616;2022-07-29T13:16:30;2.93;;;2.60;;
9224;SDS011;4647;48.072;11.616;2022-07-29T13:19:04;3.87;;;2.00;;
9224;SDS011;4647;48.072;11.616;2022-07-29T13:21:38;3.03;;;2.17;;
9224;SDS011;4647;48.072;11.616;2022-07-29T13:24:06;2.03;;;1.83;;
9224;SDS011;4647;48.072;11.616;2022-07-29T13:26:39;4.73;;;1.90;;
9224;SDS011;4647;48.072;11.616;2022-07-29T13:29:06;3.30;;;2.00;;
9224;SDS011;4647;48.072;11.616;2022-07-29T13:31:35;6.33;;;2.37;;
9224;SDS011;4647;48.072;11.616;2022-07-29T13:34:02;6.97;;;2.33;;
9224;SDS011;4647;48.072;11.616;2022-07-29T13:36:31;3.80;;;2.00;;
9224;SDS011;4647;48.072;11.616;2022-07-29T13:38:57;4.27;;;2.30;;
9224;SDS011;4647;48.072;11.616;2022-07-29T13:41:26;3.20;;;2.50;;
9224;SDS011;4647;48.072;11.616;2022-07-29T13:43:53;2.63;;;2.10;;
9224;SDS011;4647;48.072;11.616;2022-07-29T13:46:19;3.63;;;2.40;;
9224;SDS011;4647;48.072;11.616;2022-07-29T13:48:49;5.00;;;2.30;;
9224;SDS011;4647;48.072;11.616;2022-07-29T13:51:16;4.77;;;2.47;;
9224;SDS011;4647;48.072;11.616;2022-07-29T13:53:49;5.27;;;2.60;;
9224;SDS011;4647;48.072;11.616;2022-07-29T13:56:19;8.47;;;2.87;;
9224;SDS011;4647;48.072;11.616;2022-07-29T13:58:49;6.20;;;2.50;;
9224;SDS011;4647;48.072;11.616;2022-07-29T14:01:20;3.63;;;2.73;;
9224;SDS011;4647;48.072;11.616;2022-07-29T14:03:47;3.63;;;2.47;;
9224;SDS011;4647;48.072;11.616;2022-07-29T14:06:16;6.00;;;2.33;;
9224;SDS011;4647;48.072;11.616;2022-07-29T14:08:43;5.30;;;2.17;;
9224;SDS011;4647;48.072;11.616;2022-07-29T14:11:10;4.53;;;2.77;;
9224;SDS011;4647;48.072;11.616;2022-07-29T14:13:36;2.47;;;2.27;;
9224;SDS011;4647;48.072;11.616;2022-07-29T14:16:04;3.07;;;2.60;;
9224;SDS011;4647;48.072;11.616;2022-07-29T14:18:32;3.07;;;2.33;;
9224;SDS011;4647;48.072;11.616;2022-07-29T14:21:00;2.80;;;2.60;;
9224;SDS011;4647;48.072;11.616;2022-07-29T14:23:27;3.83;;;2.63;;
9224;SDS011;4647;48.072;11.616;2022-07-29T14:25:54;3.80;;;2.53;;
9224;SDS011;4647;48.072;11.616;2022-07-29T14:28:21;3.00;;;2.70;;
9224;SDS011;4647;48.072;11.616;2022-07-29T14:30:48;2.77;;;2.47;;
9224;SDS011;4647;48.072;11.616;2022-07-29T14:33:15;2.40;;;2.20;;
9224;SDS011;4647;48.072;11.616;2022-07-29T14:35:42;2.47;;;2.27;;
9224;SDS011;4647;48.072;11.616;2022-07-29T14:38:11;2.87;;;2.50;;
9224;SDS011;4647;48.072;11.616;2022-07-29T14:40:38;2.77;;;2.37;;
9224;SDS011;4647;48.072;11.616;2022-07-29T14:43:05;7.60;;;2.67;;
9224;SDS011;4647;48.072;11.616;2022-07-29T14:45:32;6.23;;;2.20;;
9224;SDS011;4647;48.072;11.616;2022-07-29T14:47:59;2.60;;;2.40;;
9224;SDS011;4647;48.072;11.616;2022-07-29T14:50:26;2.87;;;2.60;;
9224;SDS011;4647;48.072;11.616;2022-07-29T14:52:53;3.33;;;2.53;;
9224;SDS011;4647;48.072;11.616;2022-07-29T14:55:21;2.50;;;2.30;;
9224;SDS011;4647;48.072;11.616;2022-07-29T14:57:48;4.03;;;2.67;;
9224;SDS011;4647;48.072;11.616;2022-07-29T15:00:16;6.47;;;2.63;;
9224;SDS011;4647;48.072;11.616;2022-07-29T15:02:44;2.50;;;2.30;;
9224;SDS011;4647;48.072;11.616;2022-07-29T15:05:11;5.17;;;2.60;;
9224;SDS011;4647;48.072;11.616;2022-07-29T15:07:38;4.07;;;2.27;;
9224;SDS011;4647;48.072;11.616;2022-07-29T15:10:05;5.83;;;2.47;;
9224;SDS011;4647;48.072;11.616;2022-07-29T15:12:33;4.57;;;2.27;;
9224;SDS011;4647;48.072;11.616;2022-07-29T15:15:00;3.60;;;2.20;;
9224;SDS011;4647;48.072;11.616;2022-07-29T15:17:27;2.73;;;2.50;;
9224;SDS011;4647;48.072;11.616;2022-07-29T15:19:54;2.47;;;2.10;;
9224;SDS011;4647;48.072;11.616;2022-07-29T15:22:21;4.37;;;2.47;;
9224;SDS011;4647;48.072;11.616;2022-07-29T15:24:48;3.03;;;2.37;;
9224;SDS011;4647;48.072;11.616;2022-07-29T15:27:15;2.47;;;2.27;;
9224;SDS011;4647;48.072;11.616;2022-07-29T15:29:43;2.07;;;1.90;;
9224;SDS011;4647;48.072;11.616;2022-07-29T15:32:10;2.80;;;2.27;;
9224;SDS011;4647;48.072;11.616;2022-07-29T15:34:37;2.20;;;2.10;;
9224;SDS011;4647;48.072;11.616;2022-07-29T15:37:05;4.23;;;2.20;;
9224;SDS011;4647;48.072;11.616;2022-07-29T15:39:32;2.23;;;2.03;;